createdAt,value
2017-01-19T00:00:54.030Z,0
2017-01-19T00:02:03.803Z,0
2017-01-19T00:03:13.528Z,0
2017-01-19T00:04:23.249Z,0
2017-01-19T00:05:32.981Z,0
2017-01-19T00:06:43.151Z,0
2017-01-19T00:07:53.915Z,0
2017-01-19T00:09:03.645Z,0
2017-01-19T00:10:13.361Z,0
2017-01-19T00:11:23.086Z,0
2017-01-19T00:12:32.811Z,0
2017-01-19T00:13:42.620Z,0
2017-01-19T00:14:52.349Z,0
2017-01-19T00:16:02.522Z,0
2017-01-19T00:17:12.688Z,0
2017-01-19T00:18:22.853Z,0
2017-01-19T00:19:33.077Z,0
2017-01-19T00:20:42.855Z,0
2017-01-19T00:21:53.024Z,0
2017-01-19T00:23:02.748Z,0
2017-01-19T00:24:12.466Z,0
2017-01-19T00:25:23.123Z,0
2017-01-19T00:26:32.848Z,0
2017-01-19T00:27:42.581Z,0
2017-01-19T00:28:52.306Z,0
2017-01-19T00:30:02.031Z,0
2017-01-19T00:31:11.364Z,0
2017-01-19T00:32:21.085Z,0
2017-01-19T00:33:31.250Z,0
2017-01-19T00:34:41.448Z,0
2017-01-19T00:35:52.504Z,0
2017-01-19T00:37:03.173Z,0
2017-01-19T00:38:13.349Z,0
2017-01-19T00:39:24.396Z,0
2017-01-19T00:40:34.565Z,0
2017-01-19T00:41:45.177Z,0
2017-01-19T00:42:54.951Z,0
2017-01-19T00:44:05.124Z,0
2017-01-19T00:45:14.861Z,0
2017-01-19T00:46:24.586Z,0
2017-01-19T00:47:34.783Z,0
2017-01-19T00:48:44.560Z,0
2017-01-19T00:49:54.285Z,0
2017-01-19T00:51:04.038Z,0
2017-01-19T00:52:13.759Z,0
2017-01-19T00:53:23.925Z,0
2017-01-19T00:54:34.594Z,0
2017-01-19T00:55:44.763Z,0
2017-01-19T00:56:54.488Z,0
2017-01-19T00:58:04.657Z,0
2017-01-19T00:59:14.374Z,0
2017-01-19T01:00:24.591Z,0
2017-01-19T01:01:35.212Z,0
2017-01-19T01:02:44.933Z,0
2017-01-19T01:03:54.654Z,0
2017-01-19T01:05:04.819Z,0
2017-01-19T01:06:15.044Z,0
2017-01-19T01:07:24.773Z,0
2017-01-19T01:08:34.942Z,0
2017-01-19T01:09:44.663Z,0
2017-01-19T01:10:54.832Z,0
2017-01-19T01:12:05.054Z,0
2017-01-19T01:13:14.783Z,0
2017-01-19T01:14:24.060Z,0
2017-01-19T01:15:33.785Z,0
2017-01-19T01:16:43.958Z,0
2017-01-19T01:17:53.735Z,0
2017-01-19T01:19:03.464Z,0
2017-01-19T01:20:13.637Z,0
2017-01-19T01:21:23.798Z,0
2017-01-19T01:22:33.523Z,0
2017-01-19T01:23:44.189Z,0
2017-01-19T01:24:54.382Z,0
2017-01-19T01:26:04.550Z,0
2017-01-19T01:27:13.840Z,0
2017-01-19T01:28:23.569Z,0
2017-01-19T01:29:33.342Z,0
2017-01-19T01:30:43.963Z,0
2017-01-19T01:31:53.688Z,0
2017-01-19T01:33:02.969Z,0
2017-01-19T01:34:13.138Z,0
2017-01-19T01:35:22.920Z,0
2017-01-19T01:36:32.648Z,0
2017-01-19T01:37:42.377Z,0
2017-01-19T01:38:52.099Z,0
2017-01-19T01:40:01.823Z,0
2017-01-19T01:41:11.157Z,0
2017-01-19T01:42:21.326Z,0
2017-01-19T01:43:31.496Z,0
2017-01-19T01:44:41.225Z,0
2017-01-19T01:45:50.955Z,0
2017-01-19T01:47:01.172Z,0
2017-01-19T01:48:10.901Z,0
2017-01-19T01:49:21.519Z,0
2017-01-19T01:50:31.245Z,0
2017-01-19T01:51:40.978Z,0
2017-01-19T01:52:50.756Z,0
2017-01-19T01:54:00.481Z,0
2017-01-19T01:55:10.211Z,0
2017-01-19T01:56:19.936Z,0
2017-01-19T01:57:29.669Z,0
2017-01-19T01:58:40.335Z,0
2017-01-19T01:59:50.516Z,0
2017-01-19T02:01:00.242Z,0
2017-01-19T02:02:10.411Z,0
2017-01-19T02:03:21.024Z,0
2017-01-19T02:04:30.804Z,0
2017-01-19T02:05:40.560Z,0
2017-01-19T02:06:51.169Z,0
2017-01-19T02:08:00.899Z,0
2017-01-19T02:09:10.628Z,0
2017-01-19T02:10:20.409Z,0
2017-01-19T02:11:30.139Z,0
2017-01-19T02:12:41.188Z,0
2017-01-19T02:13:50.910Z,0
2017-01-19T02:15:00.199Z,0
2017-01-19T02:16:09.976Z,0
2017-01-19T02:17:20.138Z,0
2017-01-19T02:18:29.863Z,0
2017-01-19T02:19:39.589Z,0
2017-01-19T02:20:49.315Z,0
2017-01-19T02:21:58.650Z,0
2017-01-19T02:23:08.401Z,0
2017-01-19T02:24:18.128Z,0
2017-01-19T02:25:27.849Z,0
2017-01-19T02:26:38.018Z,0
2017-01-19T02:27:47.796Z,0
2017-01-19T02:28:57.961Z,0
2017-01-19T02:30:07.687Z,0
2017-01-19T02:31:17.872Z,0
2017-01-19T02:32:28.038Z,0
2017-01-19T02:33:37.823Z,0
2017-01-19T02:34:47.549Z,0
2017-01-19T02:35:57.723Z,0
2017-01-19T02:37:07.448Z,0
2017-01-19T02:38:17.618Z,0
2017-01-19T02:39:27.415Z,0
2017-01-19T02:40:37.149Z,0
2017-01-19T02:41:46.438Z,0
2017-01-19T02:42:55.723Z,0
2017-01-19T02:44:05.453Z,0
2017-01-19T02:45:18.259Z,0
2017-01-19T02:46:28.432Z,0
2017-01-19T02:47:38.597Z,0
2017-01-19T02:48:48.319Z,0
2017-01-19T02:49:58.040Z,0
2017-01-19T02:51:08.018Z,0
2017-01-19T02:52:17.771Z,0
2017-01-19T02:53:27.941Z,0
2017-01-19T02:54:37.662Z,0
2017-01-19T02:55:47.396Z,0
2017-01-19T02:56:57.169Z,0
2017-01-19T02:58:06.894Z,0
2017-01-19T02:59:17.056Z,0
2017-01-19T03:00:26.805Z,0
2017-01-19T03:01:36.531Z,0
2017-01-19T03:02:46.852Z,0
2017-01-19T03:03:56.577Z,0
2017-01-19T03:05:05.859Z,0
2017-01-19T03:06:16.036Z,0
2017-01-19T03:07:26.210Z,0
2017-01-19T03:08:35.987Z,0
2017-01-19T03:09:45.716Z,0
2017-01-19T03:10:55.442Z,0
2017-01-19T03:12:06.051Z,0
2017-01-19T03:13:15.780Z,0
2017-01-19T03:14:25.554Z,0
2017-01-19T03:15:35.284Z,0
2017-01-19T03:16:45.453Z,0
2017-01-19T03:17:55.186Z,0
2017-01-19T03:19:05.792Z,0
2017-01-19T03:20:15.565Z,0
2017-01-19T03:21:25.298Z,0
2017-01-19T03:22:35.464Z,0
2017-01-19T03:23:44.745Z,0
2017-01-19T03:24:55.355Z,0
2017-01-19T03:26:05.132Z,0
2017-01-19T03:27:14.417Z,0
2017-01-19T03:28:24.146Z,0
2017-01-19T03:29:34.308Z,0
2017-01-19T03:30:44.033Z,0
2017-01-19T03:31:53.810Z,0
2017-01-19T03:33:03.975Z,0
2017-01-19T03:34:14.144Z,0
2017-01-19T03:35:23.870Z,0
2017-01-19T03:36:33.599Z,0
2017-01-19T03:37:43.816Z,0
2017-01-19T03:38:53.550Z,0
2017-01-19T03:40:03.718Z,0
2017-01-19T03:41:13.452Z,0
2017-01-19T03:42:23.617Z,0
2017-01-19T03:43:33.395Z,0
2017-01-19T03:44:42.680Z,0
2017-01-19T03:45:52.849Z,0
2017-01-19T03:47:02.582Z,0
2017-01-19T03:48:11.860Z,0
2017-01-19T03:49:21.633Z,0
2017-01-19T03:50:31.802Z,0
2017-01-19T03:51:41.111Z,0
2017-01-19T03:52:50.840Z,0
2017-01-19T03:54:01.041Z,0
2017-01-19T03:55:11.269Z,0
2017-01-19T03:56:20.997Z,0
2017-01-19T03:57:30.718Z,0
2017-01-19T03:58:41.327Z,0
2017-01-19T03:59:51.064Z,0
2017-01-19T04:01:00.843Z,0
2017-01-19T04:02:10.123Z,0
2017-01-19T04:03:19.861Z,0
2017-01-19T04:04:29.593Z,0
2017-01-19T04:05:39.322Z,0
2017-01-19T04:06:49.099Z,0
2017-01-19T04:07:58.816Z,0
2017-01-19T04:09:08.994Z,0
2017-01-19T04:10:18.731Z,0
2017-01-19T04:11:28.901Z,0
2017-01-19T04:12:39.558Z,0
2017-01-19T04:13:48.839Z,0
2017-01-19T04:14:59.005Z,0
2017-01-19T04:16:08.730Z,0
2017-01-19T04:17:18.891Z,0
2017-01-19T04:18:28.668Z,0
2017-01-19T04:19:38.390Z,0
2017-01-19T04:20:48.558Z,0
2017-01-19T04:21:58.308Z,0
2017-01-19T04:23:08.033Z,0
2017-01-19T04:24:18.255Z,0
2017-01-19T04:25:28.420Z,0
2017-01-19T04:26:38.149Z,0
2017-01-19T04:27:47.874Z,0
2017-01-19T04:28:57.596Z,0
2017-01-19T04:30:07.817Z,0
2017-01-19T04:31:17.546Z,0
2017-01-19T04:32:27.712Z,0
2017-01-19T04:33:37.477Z,0
2017-01-19T04:34:47.646Z,0
2017-01-19T04:35:57.855Z,0
2017-01-19T04:37:07.581Z,0
2017-01-19T04:38:17.314Z,0
2017-01-19T04:39:27.475Z,0
2017-01-19T04:40:37.200Z,0
2017-01-19T04:41:46.978Z,0
2017-01-19T04:42:56.735Z,0
2017-01-19T04:44:06.457Z,0
2017-01-19T04:45:16.635Z,0
2017-01-19T04:46:26.363Z,0
2017-01-19T04:47:36.141Z,0
2017-01-19T04:48:46.306Z,0
2017-01-19T04:49:56.475Z,0
2017-01-19T04:51:06.232Z,0
2017-01-19T04:52:15.958Z,0
2017-01-19T04:53:25.751Z,0
2017-01-19T04:54:35.912Z,0
2017-01-19T04:55:46.077Z,0
2017-01-19T04:56:56.246Z,0
2017-01-19T04:58:06.858Z,0
2017-01-19T04:59:16.635Z,0
2017-01-19T05:00:26.356Z,0
2017-01-19T05:01:36.085Z,0
2017-01-19T05:02:45.809Z,0
2017-01-19T05:03:55.542Z,0
2017-01-19T05:05:05.331Z,0
2017-01-19T05:06:15.056Z,0
2017-01-19T05:07:25.229Z,0
2017-01-19T05:08:35.837Z,0
2017-01-19T05:09:45.558Z,0
2017-01-19T05:10:55.339Z,0
2017-01-19T05:12:05.060Z,0
2017-01-19T05:13:15.249Z,4
2017-01-19T05:14:25.418Z,4
2017-01-19T05:15:35.138Z,0
2017-01-19T05:16:44.911Z,0
2017-01-19T05:17:55.084Z,0
2017-01-19T05:19:04.365Z,4
2017-01-19T05:20:14.082Z,4
2017-01-19T05:21:24.275Z,0
2017-01-19T05:22:34.048Z,0
2017-01-19T05:23:44.221Z,0
2017-01-19T05:24:54.385Z,0
2017-01-19T05:26:04.558Z,0
2017-01-19T05:27:13.843Z,0
2017-01-19T05:28:23.628Z,0
2017-01-19T05:29:33.369Z,0
2017-01-19T05:30:42.655Z,0
2017-01-19T05:31:52.379Z,0
2017-01-19T05:33:02.112Z,0
2017-01-19T05:34:11.989Z,0
2017-01-19T05:35:22.158Z,0
2017-01-19T05:36:31.880Z,0
2017-01-19T05:37:41.157Z,0
2017-01-19T05:38:50.882Z,0
2017-01-19T05:40:01.103Z,0
2017-01-19T05:41:10.832Z,0
2017-01-19T05:42:20.561Z,0
2017-01-19T05:43:29.842Z,0
2017-01-19T05:44:39.127Z,0
2017-01-19T05:45:49.344Z,0
2017-01-19T05:46:59.073Z,0
2017-01-19T05:48:08.798Z,0
2017-01-19T05:49:18.963Z,0
2017-01-19T05:50:28.688Z,0
2017-01-19T05:51:38.909Z,0
2017-01-19T05:52:48.634Z,0
2017-01-19T05:53:58.359Z,0
2017-01-19T05:55:08.105Z,0
2017-01-19T05:56:18.270Z,0
2017-01-19T05:57:28.931Z,0
2017-01-19T05:58:39.104Z,0
2017-01-19T05:59:48.825Z,0
2017-01-19T06:00:58.994Z,0
2017-01-19T06:02:09.159Z,0
2017-01-19T06:03:18.497Z,0
2017-01-19T06:04:28.662Z,0
2017-01-19T06:05:38.387Z,0
2017-01-19T06:06:48.592Z,0
2017-01-19T06:07:58.757Z,0
2017-01-19T06:09:08.535Z,0
2017-01-19T06:10:18.708Z,0
2017-01-19T06:11:28.432Z,0
2017-01-19T06:12:38.598Z,0
2017-01-19T06:13:48.327Z,0
2017-01-19T06:14:58.101Z,0
2017-01-19T06:16:07.381Z,0
2017-01-19T06:17:17.998Z,0
2017-01-19T06:18:28.607Z,0
2017-01-19T06:19:37.893Z,0
2017-01-19T06:20:47.222Z,0
2017-01-19T06:21:56.951Z,0
2017-01-19T06:23:06.680Z,0
2017-01-19T06:24:16.849Z,0
2017-01-19T06:25:27.026Z,0
2017-01-19T06:26:36.807Z,0
2017-01-19T06:27:46.977Z,0
2017-01-19T06:28:56.698Z,0
2017-01-19T06:30:07.311Z,0
2017-01-19T06:31:17.040Z,0
2017-01-19T06:32:26.818Z,0
2017-01-19T06:33:36.983Z,0
2017-01-19T06:34:46.704Z,0
2017-01-19T06:35:56.425Z,0
2017-01-19T06:37:06.150Z,0
2017-01-19T06:38:15.927Z,0
2017-01-19T06:39:26.093Z,0
2017-01-19T06:40:35.818Z,0
2017-01-19T06:41:45.539Z,0
2017-01-19T06:42:55.264Z,0
2017-01-19T06:44:05.037Z,0
2017-01-19T06:45:15.215Z,4
2017-01-19T06:46:24.500Z,0
2017-01-19T06:47:34.225Z,0
2017-01-19T06:48:44.834Z,4
2017-01-19T06:49:55.051Z,0
2017-01-19T06:51:05.221Z,4
2017-01-19T06:52:15.390Z,8
2017-01-19T06:53:26.007Z,4
2017-01-19T06:54:35.744Z,4
2017-01-19T06:55:45.526Z,8
2017-01-19T06:56:55.250Z,8
2017-01-19T06:58:04.972Z,12
2017-01-19T06:59:14.697Z,12
2017-01-19T07:00:24.870Z,16
2017-01-19T07:01:34.647Z,16
2017-01-19T07:02:44.364Z,20
2017-01-19T07:03:54.089Z,28
2017-01-19T07:05:03.810Z,28
2017-01-19T07:06:13.536Z,32
2017-01-19T07:07:23.336Z,36
2017-01-19T07:08:33.066Z,40
2017-01-19T07:09:42.791Z,44
2017-01-19T07:10:53.404Z,48
2017-01-19T07:12:03.574Z,56
2017-01-19T07:13:13.351Z,64
2017-01-19T07:14:23.076Z,68
2017-01-19T07:15:33.245Z,76
2017-01-19T07:16:43.850Z,84
2017-01-19T07:17:53.575Z,92
2017-01-19T07:19:03.348Z,100
2017-01-19T07:20:13.530Z,112
2017-01-19T07:21:23.254Z,120
2017-01-19T07:22:33.428Z,132
2017-01-19T07:23:43.157Z,136
2017-01-19T07:24:52.962Z,148
2017-01-19T07:26:03.131Z,164
2017-01-19T07:27:12.408Z,180
2017-01-19T07:28:22.134Z,188
2017-01-19T07:29:32.303Z,208
2017-01-19T07:30:42.524Z,224
2017-01-19T07:31:52.693Z,232
2017-01-19T07:33:02.418Z,240
2017-01-19T07:34:11.699Z,252
2017-01-19T07:35:21.425Z,272
2017-01-19T07:36:31.646Z,292
2017-01-19T07:37:41.374Z,300
2017-01-19T07:38:51.095Z,312
2017-01-19T07:40:01.273Z,324
2017-01-19T07:41:11.009Z,348
2017-01-19T07:42:21.666Z,372
2017-01-19T07:43:31.388Z,384
2017-01-19T07:44:40.676Z,392
2017-01-19T07:45:51.297Z,412
2017-01-19T07:47:01.050Z,428
2017-01-19T07:48:10.383Z,440
2017-01-19T07:49:20.104Z,456
2017-01-19T07:50:29.833Z,480
2017-01-19T07:51:39.998Z,488
2017-01-19T07:52:49.723Z,488
2017-01-19T07:53:59.500Z,524
2017-01-19T07:55:08.781Z,576
2017-01-19T07:56:18.506Z,620
2017-01-19T07:57:28.236Z,640
2017-01-19T07:58:37.969Z,664
2017-01-19T07:59:47.746Z,684
2017-01-19T08:00:57.467Z,676
2017-01-19T08:02:07.640Z,672
2017-01-19T08:03:17.813Z,692
2017-01-19T08:04:27.538Z,756
2017-01-19T08:05:37.311Z,808
2017-01-19T08:06:47.036Z,840
2017-01-19T08:07:57.201Z,832
2017-01-19T08:09:06.926Z,792
2017-01-19T08:10:16.660Z,804
2017-01-19T08:11:26.884Z,860
2017-01-19T08:12:37.050Z,912
2017-01-19T08:13:47.215Z,960
2017-01-19T08:14:56.940Z,1008
2017-01-19T08:16:06.665Z,1080
2017-01-19T08:17:16.443Z,1136
2017-01-19T08:18:26.171Z,1144
2017-01-19T08:19:36.341Z,1120
2017-01-19T08:20:46.510Z,1144
2017-01-19T08:21:56.683Z,1208
2017-01-19T08:23:06.460Z,1240
2017-01-19T08:24:15.745Z,1268
2017-01-19T08:25:25.470Z,1296
2017-01-19T08:26:35.195Z,1336
2017-01-19T08:27:44.920Z,1368
2017-01-19T08:28:54.249Z,1380
2017-01-19T08:30:03.975Z,1392
2017-01-19T08:31:14.148Z,1436
2017-01-19T08:32:23.873Z,1472
2017-01-19T08:33:33.158Z,1500
2017-01-19T08:34:42.643Z,1468
2017-01-19T08:35:52.813Z,1416
2017-01-19T08:37:02.538Z,1388
2017-01-19T08:38:12.263Z,1384
2017-01-19T08:39:21.988Z,1436
2017-01-19T08:40:31.793Z,1500
2017-01-19T08:41:41.074Z,1580
2017-01-19T08:42:50.796Z,1648
2017-01-19T08:44:00.528Z,1672
2017-01-19T08:45:11.142Z,1704
2017-01-19T08:46:21.391Z,1760
2017-01-19T08:47:31.121Z,1792
2017-01-19T08:48:40.849Z,1824
2017-01-19T08:49:51.023Z,1852
2017-01-19T08:51:00.752Z,1836
2017-01-19T08:52:10.525Z,1796
2017-01-19T08:53:20.698Z,1840
2017-01-19T08:54:30.876Z,1888
2017-01-19T08:55:41.049Z,1960
2017-01-19T08:56:50.782Z,2028
2017-01-19T08:58:01.443Z,2084
2017-01-19T08:59:11.176Z,2084
2017-01-19T09:00:21.786Z,2124
2017-01-19T09:01:31.519Z,2188
2017-01-19T09:02:40.800Z,2220
2017-01-19T09:03:50.129Z,2244
2017-01-19T09:04:59.890Z,2236
2017-01-19T09:06:09.616Z,2252
2017-01-19T09:07:19.349Z,2156
2017-01-19T09:08:29.078Z,2156
2017-01-19T09:09:38.859Z,2200
2017-01-19T09:10:48.580Z,2216
2017-01-19T09:11:58.765Z,2272
2017-01-19T09:13:08.938Z,2340
2017-01-19T09:14:18.675Z,2328
2017-01-19T09:15:28.481Z,2316
2017-01-19T09:16:38.206Z,2312
2017-01-19T09:17:47.515Z,2412
2017-01-19T09:18:57.685Z,2388
2017-01-19T09:20:07.849Z,2340
2017-01-19T09:21:17.626Z,2320
2017-01-19T09:22:27.347Z,2344
2017-01-19T09:23:37.072Z,2316
2017-01-19T09:24:47.241Z,2252
2017-01-19T09:25:57.450Z,2384
2017-01-19T09:27:07.671Z,2388
2017-01-19T09:28:17.840Z,2408
2017-01-19T09:29:28.009Z,2236
2017-01-19T09:30:38.178Z,2004
2017-01-19T09:31:47.931Z,1840
2017-01-19T09:32:58.160Z,1748
2017-01-19T09:34:08.337Z,1488
2017-01-19T09:35:18.058Z,1436
2017-01-19T09:36:27.784Z,1436
2017-01-19T09:37:37.508Z,1460
2017-01-19T09:38:48.606Z,1304
2017-01-19T09:39:58.331Z,1260
2017-01-19T09:41:07.612Z,1192
2017-01-19T09:42:18.229Z,1156
2017-01-19T09:43:27.954Z,1196
2017-01-19T09:44:38.179Z,1128
2017-01-19T09:45:47.460Z,1192
2017-01-19T09:46:58.074Z,1132
2017-01-19T09:48:07.803Z,1204
2017-01-19T09:49:18.016Z,1220
2017-01-19T09:50:27.793Z,1204
2017-01-19T09:51:37.522Z,1260
2017-01-19T09:52:47.244Z,1192
2017-01-19T09:53:57.421Z,1176
2017-01-19T09:55:07.154Z,1272
2017-01-19T09:56:17.811Z,1316
2017-01-19T09:57:27.532Z,1324
2017-01-19T09:58:36.814Z,1384
2017-01-19T09:59:46.986Z,1444
2017-01-19T10:00:57.155Z,1524
2017-01-19T10:02:07.385Z,1544
2017-01-19T10:03:17.110Z,1484
2017-01-19T10:04:27.275Z,1596
2017-01-19T10:05:36.996Z,1628
2017-01-19T10:06:46.726Z,1656
2017-01-19T10:07:56.511Z,1684
2017-01-19T10:09:06.688Z,1724
2017-01-19T10:10:16.861Z,1760
2017-01-19T10:11:26.590Z,1792
2017-01-19T10:12:36.311Z,1820
2017-01-19T10:13:46.097Z,1844
2017-01-19T10:14:56.262Z,1884
2017-01-19T10:16:05.987Z,1924
2017-01-19T10:17:16.152Z,1968
2017-01-19T10:18:25.877Z,2020
2017-01-19T10:19:36.103Z,2048
2017-01-19T10:20:46.268Z,2080
2017-01-19T10:21:55.993Z,2116
2017-01-19T10:23:06.162Z,2148
2017-01-19T10:24:16.775Z,2180
2017-01-19T10:25:26.577Z,2224
2017-01-19T10:26:36.746Z,2264
2017-01-19T10:27:46.471Z,2284
2017-01-19T10:28:55.760Z,2312
2017-01-19T10:30:06.813Z,2348
2017-01-19T10:31:16.587Z,2384
2017-01-19T10:32:26.320Z,2416
2017-01-19T10:33:36.489Z,2448
2017-01-19T10:34:46.666Z,2488
2017-01-19T10:35:56.391Z,2528
2017-01-19T10:37:06.165Z,2552
2017-01-19T10:38:15.890Z,2588
2017-01-19T10:39:26.055Z,2620
2017-01-19T10:40:35.789Z,2644
2017-01-19T10:41:45.518Z,2688
2017-01-19T10:42:55.738Z,2712
2017-01-19T10:44:05.912Z,2744
2017-01-19T10:45:15.645Z,2768
2017-01-19T10:46:25.374Z,2800
2017-01-19T10:47:35.096Z,2844
2017-01-19T10:48:44.877Z,2856
2017-01-19T10:49:54.602Z,2808
2017-01-19T10:51:04.771Z,2772
2017-01-19T10:52:14.940Z,2804
2017-01-19T10:53:24.666Z,2928
2017-01-19T10:54:34.443Z,2940
2017-01-19T10:55:44.176Z,2940
2017-01-19T10:56:54.349Z,3024
2017-01-19T10:58:04.078Z,3068
2017-01-19T10:59:13.808Z,3060
2017-01-19T11:00:23.584Z,3148
2017-01-19T11:01:32.870Z,3180
2017-01-19T11:02:43.043Z,3188
2017-01-19T11:03:53.216Z,3132
2017-01-19T11:05:03.830Z,3180
2017-01-19T11:06:13.627Z,3260
2017-01-19T11:07:23.356Z,3304
2017-01-19T11:08:33.534Z,3340
2017-01-19T11:09:42.823Z,3376
2017-01-19T11:10:52.548Z,3408
2017-01-19T11:12:02.349Z,3420
2017-01-19T11:13:12.079Z,3456
2017-01-19T11:14:22.244Z,3476
2017-01-19T11:15:31.977Z,3520
2017-01-19T11:16:42.152Z,3540
2017-01-19T11:17:52.372Z,3560
2017-01-19T11:19:02.128Z,3592
2017-01-19T11:20:12.298Z,3616
2017-01-19T11:21:22.031Z,3508
2017-01-19T11:22:33.085Z,3264
2017-01-19T11:23:42.890Z,3220
2017-01-19T11:24:52.643Z,3336
2017-01-19T11:26:02.368Z,3524
2017-01-19T11:27:12.094Z,3696
2017-01-19T11:28:21.827Z,3760
2017-01-19T11:29:31.604Z,3784
2017-01-19T11:30:41.345Z,3808
2017-01-19T11:31:51.071Z,3848
2017-01-19T11:33:01.248Z,3872
2017-01-19T11:34:10.985Z,3908
2017-01-19T11:35:20.758Z,3916
2017-01-19T11:36:30.944Z,3940
2017-01-19T11:37:41.565Z,3948
2017-01-19T11:38:51.318Z,3976
2017-01-19T11:40:01.051Z,3992
2017-01-19T11:41:11.277Z,4028
2017-01-19T11:42:21.446Z,4056
2017-01-19T11:43:32.059Z,4076
2017-01-19T11:44:42.229Z,4076
2017-01-19T11:45:52.402Z,4076
2017-01-19T11:47:02.183Z,4088
2017-01-19T11:48:11.468Z,4080
2017-01-19T11:49:21.198Z,4072
2017-01-19T11:50:30.955Z,4052
2017-01-19T11:51:41.124Z,4028
2017-01-19T11:52:51.338Z,4036
2017-01-19T11:54:01.071Z,4044
2017-01-19T11:55:10.804Z,4008
2017-01-19T11:56:20.085Z,4008
2017-01-19T11:57:30.263Z,3996
2017-01-19T11:58:40.048Z,3984
2017-01-19T11:59:50.215Z,3988
2017-01-19T12:01:00.406Z,3972
2017-01-19T12:02:10.132Z,3996
2017-01-19T12:03:19.861Z,3996
2017-01-19T12:04:29.642Z,4020
2017-01-19T12:05:40.251Z,4000
2017-01-19T12:06:49.977Z,4008
2017-01-19T12:08:00.154Z,4016
2017-01-19T12:09:09.887Z,4016
2017-01-19T12:10:19.660Z,4012
2017-01-19T12:11:29.838Z,4028
2017-01-19T12:12:40.007Z,3996
2017-01-19T12:13:49.736Z,3996
2017-01-19T12:14:59.465Z,3960
2017-01-19T12:16:09.251Z,3964
2017-01-19T12:17:19.415Z,3960
2017-01-19T12:18:29.149Z,3948
2017-01-19T12:19:39.326Z,3936
2017-01-19T12:20:49.492Z,3924
2017-01-19T12:22:00.157Z,3928
2017-01-19T12:23:09.883Z,3908
2017-01-19T12:24:20.055Z,3924
2017-01-19T12:25:29.788Z,3924
2017-01-19T12:26:39.953Z,3912
2017-01-19T12:27:49.835Z,3920
2017-01-19T12:28:59.562Z,3920
2017-01-19T12:30:09.293Z,3876
2017-01-19T12:31:19.462Z,3888
2017-01-19T12:32:29.636Z,3884
2017-01-19T12:33:39.853Z,3888
2017-01-19T12:34:50.469Z,3880
2017-01-19T12:36:00.642Z,3896
2017-01-19T12:37:10.368Z,3860
2017-01-19T12:38:20.096Z,3852
2017-01-19T12:39:29.873Z,3860
2017-01-19T12:40:39.603Z,3828
2017-01-19T12:41:49.328Z,3848
2017-01-19T12:42:59.064Z,3848
2017-01-19T12:44:08.793Z,3832
2017-01-19T12:45:19.043Z,3840
2017-01-19T12:46:28.783Z,3828
2017-01-19T12:47:38.512Z,3816
2017-01-19T12:48:48.686Z,3796
2017-01-19T12:49:58.859Z,3792
2017-01-19T12:51:08.644Z,3776
2017-01-19T12:52:18.381Z,3756
2017-01-19T12:53:28.114Z,3728
2017-01-19T12:54:38.275Z,3724
2017-01-19T12:55:48.004Z,3692
2017-01-19T12:56:57.786Z,3664
2017-01-19T12:58:08.403Z,3628
2017-01-19T12:59:18.140Z,3592
2017-01-19T13:00:28.309Z,3568
2017-01-19T13:01:38.034Z,3528
2017-01-19T13:02:47.819Z,3508
2017-01-19T13:03:57.564Z,3492
2017-01-19T13:05:07.289Z,3488
2017-01-19T13:06:17.467Z,3472
2017-01-19T13:07:27.196Z,3424
2017-01-19T13:08:36.973Z,3384
2017-01-19T13:09:46.706Z,3352
2017-01-19T13:10:56.879Z,3312
2017-01-19T13:12:07.049Z,3292
2017-01-19T13:13:16.790Z,3272
2017-01-19T13:14:26.575Z,3260
2017-01-19T13:15:36.744Z,3244
2017-01-19T13:16:46.473Z,3208
2017-01-19T13:17:57.134Z,3160
2017-01-19T13:19:07.304Z,3132
2017-01-19T13:20:17.085Z,3112
2017-01-19T13:21:26.814Z,3096
2017-01-19T13:22:37.427Z,3068
2017-01-19T13:23:48.069Z,3012
2017-01-19T13:24:58.237Z,2972
2017-01-19T13:26:08.019Z,2944
2017-01-19T13:27:17.752Z,2932
2017-01-19T13:28:28.369Z,2900
2017-01-19T13:29:38.098Z,2904
2017-01-19T13:30:48.711Z,2880
2017-01-19T13:31:58.504Z,2844
2017-01-19T13:33:08.238Z,2804
2017-01-19T13:34:18.851Z,2756
2017-01-19T13:35:28.580Z,2740
2017-01-19T13:36:38.753Z,2724
2017-01-19T13:37:48.970Z,2728
2017-01-19T13:38:59.152Z,2696
2017-01-19T13:40:08.893Z,2652
2017-01-19T13:41:19.057Z,2620
2017-01-19T13:42:28.787Z,2584
2017-01-19T13:43:38.569Z,2548
2017-01-19T13:44:49.621Z,2528
2017-01-19T13:45:59.790Z,2536
2017-01-19T13:47:09.523Z,2504
2017-01-19T13:48:19.248Z,2464
2017-01-19T13:49:29.021Z,2440
2017-01-19T13:50:39.638Z,2400
2017-01-19T13:51:49.807Z,2364
2017-01-19T13:52:59.540Z,2340
2017-01-19T13:54:09.269Z,2308
2017-01-19T13:55:19.054Z,2260
2017-01-19T13:56:29.231Z,2228
2017-01-19T13:57:39.400Z,2200
2017-01-19T13:58:49.129Z,2176
2017-01-19T13:59:58.855Z,2164
2017-01-19T14:01:08.639Z,2132
2017-01-19T14:02:18.817Z,2088
2017-01-19T14:03:28.994Z,2044
2017-01-19T14:04:38.719Z,1992
2017-01-19T14:05:48.473Z,1872
2017-01-19T14:06:58.246Z,1672
2017-01-19T14:08:08.415Z,1456
2017-01-19T14:09:18.148Z,1256
2017-01-19T14:10:27.877Z,1092
2017-01-19T14:11:38.046Z,956
2017-01-19T14:12:47.827Z,868
2017-01-19T14:13:57.997Z,808
2017-01-19T14:15:07.726Z,772
2017-01-19T14:16:18.339Z,752
2017-01-19T14:17:28.072Z,736
2017-01-19T14:18:37.858Z,728
2017-01-19T14:19:47.586Z,720
2017-01-19T14:20:57.760Z,712
2017-01-19T14:22:07.485Z,708
2017-01-19T14:23:17.212Z,704
2017-01-19T14:24:27.435Z,696
2017-01-19T14:25:37.168Z,692
2017-01-19T14:26:48.225Z,688
2017-01-19T14:27:58.394Z,680
2017-01-19T14:29:08.124Z,680
2017-01-19T14:30:17.897Z,676
2017-01-19T14:31:27.622Z,672
2017-01-19T14:32:38.239Z,672
2017-01-19T14:33:48.412Z,672
2017-01-19T14:34:59.033Z,668
2017-01-19T14:36:09.695Z,660
2017-01-19T14:37:19.427Z,648
2017-01-19T14:38:29.596Z,636
2017-01-19T14:39:39.762Z,628
2017-01-19T14:40:49.935Z,624
2017-01-19T14:42:00.156Z,624
2017-01-19T14:43:09.885Z,636
2017-01-19T14:44:20.055Z,640
2017-01-19T14:45:29.780Z,632
2017-01-19T14:46:39.961Z,624
2017-01-19T14:47:50.174Z,612
2017-01-19T14:49:00.344Z,608
2017-01-19T14:50:10.069Z,604
2017-01-19T14:51:19.794Z,600
2017-01-19T14:52:29.963Z,592
2017-01-19T14:53:40.189Z,576
2017-01-19T14:54:50.369Z,572
2017-01-19T14:56:00.095Z,568
2017-01-19T14:57:10.264Z,564
2017-01-19T14:58:19.997Z,552
2017-01-19T14:59:30.654Z,536
2017-01-19T15:00:40.387Z,520
2017-01-19T15:01:50.560Z,508
2017-01-19T15:03:00.290Z,500
2017-01-19T15:04:10.047Z,496
2017-01-19T15:05:19.824Z,492
2017-01-19T15:06:29.553Z,484
2017-01-19T15:07:39.731Z,476
2017-01-19T15:08:49.908Z,464
2017-01-19T15:09:59.637Z,448
2017-01-19T15:11:09.414Z,432
2017-01-19T15:12:19.591Z,412
2017-01-19T15:13:30.644Z,404
2017-01-19T15:14:40.370Z,384
2017-01-19T15:15:50.099Z,368
2017-01-19T15:16:59.880Z,348
2017-01-19T15:18:10.057Z,332
2017-01-19T15:19:19.791Z,316
2017-01-19T15:20:30.412Z,308
2017-01-19T15:21:40.581Z,296
2017-01-19T15:22:50.354Z,284
2017-01-19T15:24:00.083Z,272
2017-01-19T15:25:09.817Z,260
2017-01-19T15:26:19.986Z,248
2017-01-19T15:27:29.711Z,236
2017-01-19T15:28:39.488Z,228
2017-01-19T15:29:49.658Z,216
2017-01-19T15:30:59.830Z,204
2017-01-19T15:32:10.002Z,192
2017-01-19T15:33:19.730Z,184
2017-01-19T15:34:29.516Z,172
2017-01-19T15:35:39.244Z,160
2017-01-19T15:36:48.973Z,152
2017-01-19T15:37:59.146Z,140
2017-01-19T15:39:08.883Z,128
2017-01-19T15:40:19.101Z,120
2017-01-19T15:41:29.714Z,112
2017-01-19T15:42:39.439Z,104
2017-01-19T15:43:49.160Z,96
2017-01-19T15:44:58.886Z,84
2017-01-19T15:46:09.111Z,80
2017-01-19T15:47:18.840Z,72
2017-01-19T15:48:28.569Z,64
2017-01-19T15:49:38.304Z,56
2017-01-19T15:50:49.360Z,52
2017-01-19T15:51:59.581Z,48
2017-01-19T15:53:09.314Z,40
2017-01-19T15:54:19.487Z,36
2017-01-19T15:55:29.692Z,32
2017-01-19T15:56:39.429Z,32
2017-01-19T15:57:49.207Z,24
2017-01-19T15:58:58.936Z,24
2017-01-19T16:00:08.665Z,16
2017-01-19T16:01:18.850Z,16
2017-01-19T16:02:29.043Z,16
2017-01-19T16:03:38.825Z,12
2017-01-19T16:04:48.546Z,12
2017-01-19T16:05:58.271Z,8
2017-01-19T16:07:08.436Z,8
2017-01-19T16:08:18.605Z,4
2017-01-19T16:09:28.387Z,4
2017-01-19T16:10:38.557Z,4
2017-01-19T16:11:47.837Z,4
2017-01-19T16:12:58.007Z,4
2017-01-19T16:14:07.325Z,4
2017-01-19T16:15:16.653Z,0
2017-01-19T16:16:26.378Z,0
2017-01-19T16:17:36.103Z,4
2017-01-19T16:18:45.824Z,0
2017-01-19T16:19:55.554Z,0
2017-01-19T16:21:05.331Z,0
2017-01-19T16:22:15.068Z,0